sensor_id;sensor_type;location;lat;lon;timestamp;pressure;altitude;pressure_sealevel;temperature;humidity
36010;BME280;22076;52.182;5.404;2024-02-15T00:01:18;102621.88;;;12.62;100.00
36010;BME280;22076;52.182;5.404;2024-02-15T00:03:45;102625.44;;;12.60;100.00
36010;BME280;22076;52.182;5.404;2024-02-15T00:06:11;102624.81;;;12.53;100.00
36010;BME280;22076;52.182;5.404;2024-02-15T00:08:38;102616.97;;;12.53;100.00
36010;BME280;22076;52.182;5.404;2024-02-15T00:11:04;102607.91;;;12.36;100.00
36010;BME280;22076;52.182;5.404;2024-02-15T00:13:31;102608.25;;;12.52;100.00
36010;BME280;22076;52.182;5.404;2024-02-15T00:15:58;102614.75;;;12.40;100.00
36010;BME280;22076;52.182;5.404;2024-02-15T00:18:27;102620.06;;;12.39;100.00
36010;BME280;22076;52.182;5.404;2024-02-15T00:20:54;102625.31;;;12.39;100.00
36010;BME280;22076;52.182;5.404;2024-02-15T00:23:20;102622.81;;;12.36;100.00
36010;BME280;22076;52.182;5.404;2024-02-15T00:25:47;102633.34;;;12.34;100.00
36010;BME280;22076;52.182;5.404;2024-02-15T00:28:15;102642.97;;;12.34;100.00
36010;BME280;22076;52.182;5.404;2024-02-15T00:30:41;102646.41;;;12.36;100.00
36010;BME280;22076;52.182;5.404;2024-02-15T00:33:08;102656.94;;;12.34;100.00
36010;BME280;22076;52.182;5.404;2024-02-15T00:35:36;102674.31;;;12.37;100.00
36010;BME280;22076;52.182;5.404;2024-02-15T00:38:03;102674.41;;;12.34;100.00
36010;BME280;22076;52.182;5.404;2024-02-15T00:40:29;102659.00;;;12.25;100.00
36010;BME280;22076;52.182;5.404;2024-02-15T00:42:56;102675.28;;;12.34;100.00
36010;BME280;22076;52.182;5.404;2024-02-15T00:45:22;102677.94;;;12.33;100.00
36010;BME280;22076;52.182;5.404;2024-02-15T00:47:48;102683.28;;;12.30;100.00
36010;BME280;22076;52.182;5.404;2024-02-15T00:50:16;102686.66;;;12.33;100.00
36010;BME280;22076;52.182;5.404;2024-02-15T00:52:44;102682.22;;;12.35;100.00
36010;BME280;22076;52.182;5.404;2024-02-15T00:55:10;102676.25;;;12.32;100.00
36010;BME280;22076;52.182;5.404;2024-02-15T00:57:37;102684.09;;;12.32;100.00
36010;BME280;22076;52.182;5.404;2024-02-15T01:00:04;102683.09;;;12.36;100.00
36010;BME280;22076;52.182;5.404;2024-02-15T01:02:33;102694.53;;;12.33;100.00
36010;BME280;22076;52.182;5.404;2024-02-15T01:05:01;102693.56;;;12.36;100.00
36010;BME280;22076;52.182;5.404;2024-02-15T01:07:27;102694.47;;;12.35;100.00
36010;BME280;22076;52.182;5.404;2024-02-15T01:09:55;102691.97;;;12.32;100.00
36010;BME280;22076;52.182;5.404;2024-02-15T01:12:21;102692.88;;;12.31;100.00
36010;BME280;22076;52.182;5.404;2024-02-15T01:14:48;102690.19;;;12.32;100.00
36010;BME280;22076;52.182;5.404;2024-02-15T01:17:15;102690.19;;;12.32;100.00
36010;BME280;22076;52.182;5.404;2024-02-15T01:19:42;102687.63;;;12.31;100.00
36010;BME280;22076;52.182;5.404;2024-02-15T01:22:08;102682.44;;;12.29;100.00
36010;BME280;22076;52.182;5.404;2024-02-15T01:24:35;102680.56;;;12.33;100.00
36010;BME280;22076;52.182;5.404;2024-02-15T01:27:03;102681.53;;;12.30;100.00
36010;BME280;22076;52.182;5.404;2024-02-15T01:29:32;102678.88;;;12.32;100.00
36010;BME280;22076;52.182;5.404;2024-02-15T01:31:59;102677.28;;;12.26;100.00
36010;BME280;22076;52.182;5.404;2024-02-15T01:34:26;102674.59;;;12.29;100.00
36010;BME280;22076;52.182;5.404;2024-02-15T01:36:53;102677.22;;;12.29;100.00
36010;BME280;22076;52.182;5.404;2024-02-15T01:39:19;102671.00;;;12.32;100.00
36010;BME280;22076;52.182;5.404;2024-02-15T01:41:47;102677.03;;;12.34;100.00
36010;BME280;22076;52.182;5.404;2024-02-15T01:44:17;102673.69;;;12.30;100.00
36010;BME280;22076;52.182;5.404;2024-02-15T01:46:46;102674.66;;;12.26;100.00
36010;BME280;22076;52.182;5.404;2024-02-15T01:49:14;102676.50;;;12.24;100.00
36010;BME280;22076;52.182;5.404;2024-02-15T01:51:41;102676.38;;;12.27;100.00
36010;BME280;22076;52.182;5.404;2024-02-15T01:54:09;102676.50;;;12.24;100.00
36010;BME280;22076;52.182;5.404;2024-02-15T01:56:36;102685.91;;;12.30;100.00
36010;BME280;22076;52.182;5.404;2024-02-15T01:59:04;102684.09;;;12.32;100.00
36010;BME280;22076;52.182;5.404;2024-02-15T02:01:33;102673.72;;;12.29;100.00
36010;BME280;22076;52.182;5.404;2024-02-15T02:04:00;102672.88;;;12.28;100.00
36010;BME280;22076;52.182;5.404;2024-02-15T02:06:27;102665.91;;;12.27;100.00
36010;BME280;22076;52.182;5.404;2024-02-15T02:08:55;102672.06;;;12.26;100.00
36010;BME280;22076;52.182;5.404;2024-02-15T02:11:21;102665.06;;;12.27;100.00
36010;BME280;22076;52.182;5.404;2024-02-15T02:13:48;102670.25;;;12.28;100.00
36010;BME280;22076;52.182;5.404;2024-02-15T02:16:24;102665.81;;;12.30;100.00
36010;BME280;22076;52.182;5.404;2024-02-15T02:18:53;102657.03;;;12.31;100.00
36010;BME280;22076;52.182;5.404;2024-02-15T02:21:20;102662.28;;;12.31;100.00
36010;BME280;22076;52.182;5.404;2024-02-15T02:23:48;102671.00;;;12.32;100.00
36010;BME280;22076;52.182;5.404;2024-02-15T02:26:20;102666.53;;;12.34;100.00
36010;BME280;22076;52.182;5.404;2024-02-15T02:28:47;102669.22;;;12.32;100.00
36010;BME280;22076;52.182;5.404;2024-02-15T02:31:14;102662.28;;;12.31;100.00
36010;BME280;22076;52.182;5.404;2024-02-15T02:33:41;102662.19;;;12.34;100.00
36010;BME280;22076;52.182;5.404;2024-02-15T02:36:08;102652.59;;;12.33;100.00
36010;BME280;22076;52.182;5.404;2024-02-15T02:38:37;102653.50;;;12.32;100.00
36010;BME280;22076;52.182;5.404;2024-02-15T02:41:05;102660.47;;;12.33;100.00
36010;BME280;22076;52.182;5.404;2024-02-15T02:43:33;102657.31;;;12.49;100.00
36010;BME280;22076;52.182;5.404;2024-02-15T02:45:59;102653.09;;;12.45;100.00
36010;BME280;22076;52.182;5.404;2024-02-15T02:48:26;102670.22;;;12.55;100.00
36010;BME280;22076;52.182;5.404;2024-02-15T02:50:52;102661.31;;;12.59;100.00
36010;BME280;22076;52.182;5.404;2024-02-15T02:53:19;102658.56;;;12.62;100.00
36010;BME280;22076;52.182;5.404;2024-02-15T02:55:45;102638.50;;;12.61;100.00
36010;BME280;22076;52.182;5.404;2024-02-15T02:58:12;102626.34;;;12.59;100.00
36010;BME280;22076;52.182;5.404;2024-02-15T03:00:40;102625.38;;;12.61;100.00
36010;BME280;22076;52.182;5.404;2024-02-15T03:03:08;102618.63;;;12.55;100.00
36010;BME280;22076;52.182;5.404;2024-02-15T03:05:34;102620.09;;;12.63;100.00
36010;BME280;22076;52.182;5.404;2024-02-15T03:08:01;102617.25;;;12.69;100.00
36010;BME280;22076;52.182;5.404;2024-02-15T03:10:27;102596.41;;;12.40;100.00
36010;BME280;22076;52.182;5.404;2024-02-15T03:12:54;102600.13;;;12.35;100.00
36010;BME280;22076;52.182;5.404;2024-02-15T03:15:20;102600.31;;;12.30;100.00
36010;BME280;22076;52.182;5.404;2024-02-15T03:17:50;102604.25;;;12.42;100.00
36010;BME280;22076;52.182;5.404;2024-02-15T03:20:17;102601.44;;;12.47;100.00
36010;BME280;22076;52.182;5.404;2024-02-15T03:22:50;102601.72;;;12.39;100.00
36010;BME280;22076;52.182;5.404;2024-02-15T03:25:17;102610.13;;;12.49;100.00
36010;BME280;22076;52.182;5.404;2024-02-15T03:27:44;102609.38;;;12.45;100.00
36010;BME280;22076;52.182;5.404;2024-02-15T03:30:11;102603.56;;;12.37;100.00
36010;BME280;22076;52.182;5.404;2024-02-15T03:32:38;102608.31;;;12.26;100.00
36010;BME280;22076;52.182;5.404;2024-02-15T03:35:07;102610.47;;;12.38;100.00
36010;BME280;22076;52.182;5.404;2024-02-15T03:37:34;102627.72;;;12.45;100.00
36010;BME280;22076;52.182;5.404;2024-02-15T03:40:02;102618.13;;;12.44;100.00
36010;BME280;22076;52.182;5.404;2024-02-15T03:42:30;102618.94;;;12.46;100.00
36010;BME280;22076;52.182;5.404;2024-02-15T03:44:56;102618.13;;;12.44;100.00
36010;BME280;22076;52.182;5.404;2024-02-15T03:47:23;102619.91;;;12.44;100.00
36010;BME280;22076;52.182;5.404;2024-02-15T03:49:49;102613.78;;;12.43;100.00
36010;BME280;22076;52.182;5.404;2024-02-15T03:52:17;102613.91;;;12.40;100.00
36010;BME280;22076;52.182;5.404;2024-02-15T03:54:44;102623.31;;;12.46;100.00
36010;BME280;22076;52.182;5.404;2024-02-15T03:57:11;102617.28;;;12.44;100.00
36010;BME280;22076;52.182;5.404;2024-02-15T03:59:38;102611.94;;;12.47;100.00
36010;BME280;22076;52.182;5.404;2024-02-15T04:02:05;102603.91;;;12.51;100.00
36010;BME280;22076;52.182;5.404;2024-02-15T04:04:37;102607.38;;;12.52;100.00
36010;BME280;22076;52.182;5.404;2024-02-15T04:07:07;102608.41;;;12.48;100.00
36010;BME280;22076;52.182;5.404;2024-02-15T04:09:35;102610.88;;;12.52;100.00
36010;BME280;22076;52.182;5.404;2024-02-15T04:12:01;102602.19;;;12.50;100.00
36010;BME280;22076;52.182;5.404;2024-02-15T04:14:28;102593.53;;;12.48;100.00
36010;BME280;22076;52.182;5.404;2024-02-15T04:16:55;102591.09;;;12.44;100.00
36010;BME280;22076;52.182;5.404;2024-02-15T04:19:22;102593.69;;;12.44;100.00
36010;BME280;22076;52.182;5.404;2024-02-15T04:21:49;102589.22;;;12.47;100.00
36010;BME280;22076;52.182;5.404;2024-02-15T04:24:16;102592.75;;;12.46;100.00
36010;BME280;22076;52.182;5.404;2024-02-15T04:26:44;102575.78;;;12.31;100.00
36010;BME280;22076;52.182;5.404;2024-02-15T04:29:12;102573.22;;;12.30;100.00
36010;BME280;22076;52.182;5.404;2024-02-15T04:31:40;102571.56;;;12.27;100.00
36010;BME280;22076;52.182;5.404;2024-02-15T04:34:08;102593.72;;;12.67;100.00
36010;BME280;22076;52.182;5.404;2024-02-15T04:36:36;102596.19;;;12.70;100.00
36010;BME280;22076;52.182;5.404;2024-02-15T04:39:02;102595.97;;;12.77;100.00
36010;BME280;22076;52.182;5.404;2024-02-15T04:41:30;102581.28;;;12.72;100.00
36010;BME280;22076;52.182;5.404;2024-02-15T04:43:57;102571.75;;;12.70;100.00
36010;BME280;22076;52.182;5.404;2024-02-15T04:46:24;102564.81;;;12.69;100.00
36010;BME280;22076;52.182;5.404;2024-02-15T04:48:51;102551.69;;;12.69;100.00
36010;BME280;22076;52.182;5.404;2024-02-15T04:51:17;102543.75;;;12.70;100.00
36010;BME280;22076;52.182;5.404;2024-02-15T04:53:44;102531.53;;;12.71;100.00
36010;BME280;22076;52.182;5.404;2024-02-15T04:56:12;102531.47;;;12.72;100.00
36010;BME280;22076;52.182;5.404;2024-02-15T04:58:40;102520.06;;;12.73;100.00
36010;BME280;22076;52.182;5.404;2024-02-15T05:01:13;102510.31;;;12.77;100.00
36010;BME280;22076;52.182;5.404;2024-02-15T05:03:41;102500.06;;;12.71;100.00
36010;BME280;22076;52.182;5.404;2024-02-15T05:06:07;102492.41;;;12.65;100.00
36010;BME280;22076;52.182;5.404;2024-02-15T05:08:35;102499.91;;;12.74;100.00
36010;BME280;22076;52.182;5.404;2024-02-15T05:11:07;102493.03;;;12.71;100.00
36010;BME280;22076;52.182;5.404;2024-02-15T05:13:38;102489.44;;;12.74;100.00
36010;BME280;22076;52.182;5.404;2024-02-15T05:16:05;102489.25;;;12.79;100.00
36010;BME280;22076;52.182;5.404;2024-02-15T05:18:33;102487.72;;;12.73;100.00
36010;BME280;22076;52.182;5.404;2024-02-15T05:21:00;102478.44;;;12.42;100.00
36010;BME280;22076;52.182;5.404;2024-02-15T05:23:28;102480.41;;;12.35;100.00
36010;BME280;22076;52.182;5.404;2024-02-15T05:25:55;102488.41;;;12.32;100.00
36010;BME280;22076;52.182;5.404;2024-02-15T05:28:23;102497.34;;;12.27;100.00
36010;BME280;22076;52.182;5.404;2024-02-15T05:31:09;102518.81;;;12.36;100.00
36010;BME280;22076;52.182;5.404;2024-02-15T05:33:37;102525.84;;;12.36;100.00
36010;BME280;22076;52.182;5.404;2024-02-15T05:36:08;102534.31;;;12.43;100.00
36010;BME280;22076;52.182;5.404;2024-02-15T05:38:35;102528.63;;;12.55;100.00
36010;BME280;22076;52.182;5.404;2024-02-15T05:41:02;102520.81;;;12.53;100.00
36010;BME280;22076;52.182;5.404;2024-02-15T05:43:28;102500.19;;;12.44;100.00
36010;BME280;22076;52.182;5.404;2024-02-15T05:45:55;102490.66;;;12.42;100.00
36010;BME280;22076;52.182;5.404;2024-02-15T05:48:24;102483.84;;;12.37;100.00
36010;BME280;22076;52.182;5.404;2024-02-15T05:50:52;102487.66;;;12.52;100.00
36010;BME280;22076;52.182;5.404;2024-02-15T05:53:19;102492.66;;;12.59;100.00
36010;BME280;22076;52.182;5.404;2024-02-15T05:55:46;102501.94;;;12.67;100.00
36010;BME280;22076;52.182;5.404;2024-02-15T05:58:15;102499.59;;;12.60;100.00
36010;BME280;22076;52.182;5.404;2024-02-15T06:00:42;102496.38;;;12.53;100.00
36010;BME280;22076;52.182;5.404;2024-02-15T06:03:09;102503.03;;;12.62;100.00
36010;BME280;22076;52.182;5.404;2024-02-15T06:05:37;102501.94;;;12.67;100.00
36010;BME280;22076;52.182;5.404;2024-02-15T06:08:06;102498.41;;;12.68;100.00
36010;BME280;22076;52.182;5.404;2024-02-15T06:10:32;102495.88;;;12.65;100.00
36010;BME280;22076;52.182;5.404;2024-02-15T06:12:59;102503.50;;;12.71;100.00
36010;BME280;22076;52.182;5.404;2024-02-15T06:15:25;102490.41;;;12.71;100.00
36010;BME280;22076;52.182;5.404;2024-02-15T06:17:52;102485.03;;;12.52;100.00
36010;BME280;22076;52.182;5.404;2024-02-15T06:20:19;102487.00;;;12.46;100.00
36010;BME280;22076;52.182;5.404;2024-02-15T06:22:46;102496.78;;;12.42;100.00
36010;BME280;22076;52.182;5.404;2024-02-15T06:25:15;102496.78;;;12.42;100.00
36010;BME280;22076;52.182;5.404;2024-02-15T06:27:45;102515.16;;;12.40;100.00
36010;BME280;22076;52.182;5.404;2024-02-15T06:30:13;102520.31;;;12.44;100.00
36010;BME280;22076;52.182;5.404;2024-02-15T06:32:57;102533.47;;;12.42;100.00
36010;BME280;22076;52.182;5.404;2024-02-15T06:35:41;102531.69;;;12.43;100.00
36010;BME280;22076;52.182;5.404;2024-02-15T06:38:26;102535.97;;;12.45;100.00
36010;BME280;22076;52.182;5.404;2024-02-15T06:41:11;102531.34;;;12.52;100.00
36010;BME280;22076;52.182;5.404;2024-02-15T06:43:38;102535.81;;;12.50;100.00
36010;BME280;22076;52.182;5.404;2024-02-15T06:46:06;102547.03;;;12.53;100.00
36010;BME280;22076;52.182;5.404;2024-02-15T06:48:32;102547.75;;;12.57;100.00
36010;BME280;22076;52.182;5.404;2024-02-15T06:50:59;102536.81;;;12.46;100.00
36010;BME280;22076;52.182;5.404;2024-02-15T06:53:26;102533.22;;;12.48;100.00
36010;BME280;22076;52.182;5.404;2024-02-15T06:55:52;102532.50;;;12.68;100.00
36010;BME280;22076;52.182;5.404;2024-02-15T06:58:20;102518.09;;;12.56;100.00
36010;BME280;22076;52.182;5.404;2024-02-15T07:00:48;102528.72;;;12.52;100.00
36010;BME280;22076;52.182;5.404;2024-02-15T07:03:15;102539.28;;;12.50;100.00
36010;BME280;22076;52.182;5.404;2024-02-15T07:05:42;102541.56;;;12.60;100.00
36010;BME280;22076;52.182;5.404;2024-02-15T07:08:09;102540.09;;;12.52;100.00
36010;BME280;22076;52.182;5.404;2024-02-15T07:10:37;102545.16;;;12.57;100.00
36010;BME280;22076;52.182;5.404;2024-02-15T07:13:03;102545.50;;;12.48;100.00
36010;BME280;22076;52.182;5.404;2024-02-15T07:15:33;102555.16;;;12.46;100.00
36010;BME280;22076;52.182;5.404;2024-02-15T07:18:04;102565.44;;;12.52;100.00
36010;BME280;22076;52.182;5.404;2024-02-15T07:20:31;102558.75;;;12.43;100.00
36010;BME280;22076;52.182;5.404;2024-02-15T07:22:58;102556.94;;;12.45;100.00
36010;BME280;22076;52.182;5.404;2024-02-15T07:25:24;102552.59;;;12.44;100.00
36010;BME280;22076;52.182;5.404;2024-02-15T07:27:51;102558.88;;;12.40;100.00
36010;BME280;22076;52.182;5.404;2024-02-15T07:30:17;102577.97;;;12.44;100.00
36010;BME280;22076;52.182;5.404;2024-02-15T07:32:46;102587.50;;;12.46;100.00
36010;BME280;22076;52.182;5.404;2024-02-15T07:35:12;102596.25;;;12.45;100.00
36010;BME280;22076;52.182;5.404;2024-02-15T07:37:51;102621.56;;;12.46;100.00
36010;BME280;22076;52.182;5.404;2024-02-15T07:40:17;102614.66;;;12.44;100.00
36010;BME280;22076;52.182;5.404;2024-02-15T07:42:45;102622.53;;;12.44;100.00
36010;BME280;22076;52.182;5.404;2024-02-15T07:45:12;102621.56;;;12.46;100.00
36010;BME280;22076;52.182;5.404;2024-02-15T07:47:39;102615.44;;;12.46;100.00
36010;BME280;22076;52.182;5.404;2024-02-15T07:50:07;102634.63;;;12.48;100.00
36010;BME280;22076;52.182;5.404;2024-02-15T07:52:34;102632.00;;;12.48;100.00
36010;BME280;22076;52.182;5.404;2024-02-15T07:55:01;102627.09;;;12.38;100.00
36010;BME280;22076;52.182;5.404;2024-02-15T07:57:33;102650.47;;;12.45;100.00
36010;BME280;22076;52.182;5.404;2024-02-15T08:00:00;102664.41;;;12.45;100.00
36010;BME280;22076;52.182;5.404;2024-02-15T08:02:26;102670.78;;;12.38;100.00
36010;BME280;22076;52.182;5.404;2024-02-15T08:05:03;102668.69;;;12.48;100.00
36010;BME280;22076;52.182;5.404;2024-02-15T08:07:32;102646.88;;;12.47;100.00
36010;BME280;22076;52.182;5.404;2024-02-15T08:10:01;102647.09;;;12.41;100.00
36010;BME280;22076;52.182;5.404;2024-02-15T08:12:28;102650.50;;;12.43;100.00
36010;BME280;22076;52.182;5.404;2024-02-15T08:14:55;102660.06;;;12.44;100.00
36010;BME280;22076;52.182;5.404;2024-02-15T08:17:23;102666.22;;;12.43;100.00
36010;BME280;22076;52.182;5.404;2024-02-15T08:19:50;102662.75;;;12.43;100.00
36010;BME280;22076;52.182;5.404;2024-02-15T08:22:17;102651.38;;;12.44;100.00
36010;BME280;22076;52.182;5.404;2024-02-15T08:24:51;102663.50;;;12.46;100.00
36010;BME280;22076;52.182;5.404;2024-02-15T08:27:18;102668.91;;;12.42;100.00
36010;BME280;22076;52.182;5.404;2024-02-15T08:29:44;102665.38;;;12.43;100.00
36010;BME280;22076;52.182;5.404;2024-02-15T08:32:11;102666.97;;;12.47;100.00
36010;BME280;22076;52.182;5.404;2024-02-15T08:34:39;102659.31;;;12.40;100.00
36010;BME280;22076;52.182;5.404;2024-02-15T08:37:06;102647.78;;;12.46;100.00
36010;BME280;22076;52.182;5.404;2024-02-15T08:39:33;102653.09;;;12.45;100.00
36010;BME280;22076;52.182;5.404;2024-02-15T08:42:00;102660.91;;;12.46;100.00
36010;BME280;22076;52.182;5.404;2024-02-15T08:44:29;102647.84;;;12.45;100.00
36010;BME280;22076;52.182;5.404;2024-02-15T08:46:56;102644.28;;;12.46;100.00
36010;BME280;22076;52.182;5.404;2024-02-15T08:49:22;102635.53;;;12.47;100.00
36010;BME280;22076;52.182;5.404;2024-02-15T08:51:49;102640.69;;;12.50;100.00
36010;BME280;22076;52.182;5.404;2024-02-15T08:54:15;102632.91;;;12.47;100.00
36010;BME280;22076;52.182;5.404;2024-02-15T08:56:42;102619.69;;;12.50;100.00
36010;BME280;22076;52.182;5.404;2024-02-15T08:59:10;102613.53;;;12.51;100.00
36010;BME280;22076;52.182;5.404;2024-02-15T09:01:36;102612.75;;;12.49;100.00
36010;BME280;22076;52.182;5.404;2024-02-15T09:04:04;102614.47;;;12.50;100.00
36010;BME280;22076;52.182;5.404;2024-02-15T09:06:30;102619.78;;;12.47;100.00
36010;BME280;22076;52.182;5.404;2024-02-15T09:08:57;102622.31;;;12.50;100.00
36010;BME280;22076;52.182;5.404;2024-02-15T09:11:28;102624.97;;;12.48;100.00
36010;BME280;22076;52.182;5.404;2024-02-15T09:13:55;102631.16;;;12.47;100.00
36010;BME280;22076;52.182;5.404;2024-02-15T09:16:22;102631.84;;;12.52;100.00
36010;BME280;22076;52.182;5.404;2024-02-15T09:18:49;102634.69;;;12.46;100.00
36010;BME280;22076;52.182;5.404;2024-02-15T09:21:15;102632.81;;;12.50;100.00
36010;BME280;22076;52.182;5.404;2024-02-15T09:23:42;102638.84;;;12.52;100.00
36010;BME280;22076;52.182;5.404;2024-02-15T09:26:17;102627.44;;;12.53;100.00
36010;BME280;22076;52.182;5.404;2024-02-15T09:28:44;102628.25;;;12.55;100.00
36010;BME280;22076;52.182;5.404;2024-02-15T09:31:12;102628.13;;;12.58;100.00
36010;BME280;22076;52.182;5.404;2024-02-15T09:33:40;102627.94;;;12.64;100.00
36010;BME280;22076;52.182;5.404;2024-02-15T09:36:07;102631.44;;;12.63;100.00
36010;BME280;22076;52.182;5.404;2024-02-15T09:38:33;102627.94;;;12.64;100.00
36010;BME280;22076;52.182;5.404;2024-02-15T09:41:01;102624.34;;;12.67;100.00
36010;BME280;22076;52.182;5.404;2024-02-15T09:43:28;102626.03;;;12.68;100.00
36010;BME280;22076;52.182;5.404;2024-02-15T09:45:55;102635.53;;;12.70;100.00
36010;BME280;22076;52.182;5.404;2024-02-15T09:48:23;102631.94;;;12.73;100.00
36010;BME280;22076;52.182;5.404;2024-02-15T09:50:53;102633.84;;;12.69;100.00
36010;BME280;22076;52.182;5.404;2024-02-15T09:53:21;102630.25;;;12.72;100.00
36010;BME280;22076;52.182;5.404;2024-02-15T09:55:48;102630.34;;;12.69;100.00
36010;BME280;22076;52.182;5.404;2024-02-15T09:58:15;102621.13;;;12.59;100.00
36010;BME280;22076;52.182;5.404;2024-02-15T10:00:42;102628.81;;;12.63;100.00
36010;BME280;22076;52.182;5.404;2024-02-15T10:03:12;102620.84;;;12.66;100.00
36010;BME280;22076;52.182;5.404;2024-02-15T10:05:42;102626.09;;;12.66;100.00
36010;BME280;22076;52.182;5.404;2024-02-15T10:08:10;102628.00;;;12.61;100.00
36010;BME280;22076;52.182;5.404;2024-02-15T10:10:37;102632.63;;;12.54;100.00
36010;BME280;22076;52.182;5.404;2024-02-15T10:13:03;102638.63;;;12.58;100.00
36010;BME280;22076;52.182;5.404;2024-02-15T10:15:31;102638.84;;;12.52;100.00
36010;BME280;22076;52.182;5.404;2024-02-15T10:17:59;102635.19;;;12.56;100.00
36010;BME280;22076;52.182;5.404;2024-02-15T10:20:26;102640.22;;;12.62;100.00
36010;BME280;22076;52.182;5.404;2024-02-15T10:22:53;102638.56;;;12.60;100.00
36010;BME280;22076;52.182;5.404;2024-02-15T10:25:22;102644.44;;;12.66;100.00
36010;BME280;22076;52.182;5.404;2024-02-15T10:27:49;102646.22;;;12.66;100.00
36010;BME280;22076;52.182;5.404;2024-02-15T10:30:17;102645.06;;;12.73;100.00
36010;BME280;22076;52.182;5.404;2024-02-15T10:32:44;102638.22;;;12.69;100.00
36010;BME280;22076;52.182;5.404;2024-02-15T10:35:18;102645.75;;;12.78;100.00
36010;BME280;22076;52.182;5.404;2024-02-15T10:37:46;102644.06;;;12.77;100.00
36010;BME280;22076;52.182;5.404;2024-02-15T10:40:17;102629.28;;;12.75;100.00
36010;BME280;22076;52.182;5.404;2024-02-15T10:42:47;102643.09;;;12.80;100.00
36010;BME280;22076;52.182;5.404;2024-02-15T10:45:15;102641.19;;;12.83;100.00
36010;BME280;22076;52.182;5.404;2024-02-15T10:47:44;102642.75;;;12.89;100.00
36010;BME280;22076;52.182;5.404;2024-02-15T10:50:11;102638.13;;;12.96;100.00
36010;BME280;22076;52.182;5.404;2024-02-15T10:52:43;102640.81;;;12.94;100.00
36010;BME280;22076;52.182;5.404;2024-02-15T10:55:12;102632.97;;;12.93;100.00
36010;BME280;22076;52.182;5.404;2024-02-15T10:57:47;102636.41;;;12.95;100.00
36010;BME280;22076;52.182;5.404;2024-02-15T11:00:18;102633.16;;;12.88;100.00
36010;BME280;22076;52.182;5.404;2024-02-15T11:02:52;102626.72;;;12.97;100.00
36010;BME280;22076;52.182;5.404;2024-02-15T11:05:21;102621.41;;;12.98;100.00
36010;BME280;22076;52.182;5.404;2024-02-15T11:07:49;102610.78;;;13.01;100.00
36010;BME280;22076;52.182;5.404;2024-02-15T11:10:16;102614.38;;;12.99;100.00
36010;BME280;22076;52.182;5.404;2024-02-15T11:12:43;102612.63;;;12.99;100.00
36010;BME280;22076;52.182;5.404;2024-02-15T11:15:11;102605.59;;;13.00;100.00
36010;BME280;22076;52.182;5.404;2024-02-15T11:17:45;102610.34;;;13.14;100.00
36010;BME280;22076;52.182;5.404;2024-02-15T11:23:27;102605.47;;;13.03;100.00
36010;BME280;22076;52.182;5.404;2024-02-15T11:25:54;102611.47;;;13.06;100.00
36010;BME280;22076;52.182;5.404;2024-02-15T11:28:37;102608.50;;;13.16;100.00
36010;BME280;22076;52.182;5.404;2024-02-15T11:31:10;102607.47;;;13.20;100.00
36010;BME280;22076;52.182;5.404;2024-02-15T11:33:38;102601.66;;;13.12;100.00
36010;BME280;22076;52.182;5.404;2024-02-15T11:36:06;102607.50;;;13.18;100.00
36010;BME280;22076;52.182;5.404;2024-02-15T11:38:33;102600.44;;;13.20;100.00
36010;BME280;22076;52.182;5.404;2024-02-15T11:41:02;102601.97;;;13.26;100.00
36010;BME280;22076;52.182;5.404;2024-02-15T11:43:48;102588.84;;;13.26;100.00
36010;BME280;22076;52.182;5.404;2024-02-15T11:46:25;102589.75;;;13.25;100.00
36010;BME280;22076;52.182;5.404;2024-02-15T11:48:55;102588.66;;;13.31;100.00
36010;BME280;22076;52.182;5.404;2024-02-15T11:51:28;102581.63;;;13.31;100.00
36010;BME280;22076;52.182;5.404;2024-02-15T11:54:06;102582.38;;;13.35;100.00
36010;BME280;22076;52.182;5.404;2024-02-15T11:56:51;102578.91;;;13.34;100.00
36010;BME280;22076;52.182;5.404;2024-02-15T11:59:19;102578.81;;;13.37;100.00
36010;BME280;22076;52.182;5.404;2024-02-15T12:01:58;102576.13;;;13.39;100.00
36010;BME280;22076;52.182;5.404;2024-02-15T12:04:42;102564.84;;;13.37;100.00
36010;BME280;22076;52.182;5.404;2024-02-15T12:07:27;102563.97;;;13.36;100.00
36010;BME280;22076;52.182;5.404;2024-02-15T12:10:20;102565.44;;;13.44;100.00
36010;BME280;22076;52.182;5.404;2024-02-15T12:13:04;102555.78;;;13.44;100.00
36010;BME280;22076;52.182;5.404;2024-02-15T12:15:56;102547.66;;;13.50;100.00
36010;BME280;22076;52.182;5.404;2024-02-15T12:18:43;102541.69;;;13.47;100.00
36010;BME280;22076;52.182;5.404;2024-02-15T12:21:13;102547.59;;;13.52;100.00
36010;BME280;22076;52.182;5.404;2024-02-15T12:23:41;102533.34;;;13.37;100.00
36010;BME280;22076;52.182;5.404;2024-02-15T12:26:08;102532.22;;;13.43;100.00
36010;BME280;22076;52.182;5.404;2024-02-15T12:28:35;102534.03;;;13.41;100.00
36010;BME280;22076;52.182;5.404;2024-02-15T12:31:02;102525.16;;;13.45;100.00
36010;BME280;22076;52.182;5.404;2024-02-15T12:33:32;102529.78;;;13.38;100.00
36010;BME280;22076;52.182;5.404;2024-02-15T12:36:09;102539.31;;;13.61;100.00
36010;BME280;22076;52.182;5.404;2024-02-15T12:38:36;102528.97;;;13.58;100.00
36010;BME280;22076;52.182;5.404;2024-02-15T12:41:04;102534.88;;;13.63;100.00
36010;BME280;22076;52.182;5.404;2024-02-15T12:43:43;102546.03;;;13.68;100.00
36010;BME280;22076;52.182;5.404;2024-02-15T12:46:10;102550.25;;;13.73;100.00
36010;BME280;22076;52.182;5.404;2024-02-15T12:48:37;102550.97;;;13.76;100.00
36010;BME280;22076;52.182;5.404;2024-02-15T12:51:14;102547.47;;;13.76;100.00